sensor_id;sensor_type;location;lat;lon;timestamp;pressure;altitude;pressure_sealevel;temperature;humidity
75604;BME280;64187;51.010;13.792;2023-04-25T00:02:19;99413.50;;;9.42;67.37
75604;BME280;64187;51.010;13.792;2023-04-25T00:07:18;99421.91;;;9.83;66.49
75604;BME280;64187;51.010;13.792;2023-04-25T00:12:18;99417.25;;;9.74;67.43
75604;BME280;64187;51.010;13.792;2023-04-25T00:17:16;99413.72;;;9.73;67.94
75604;BME280;64187;51.010;13.792;2023-04-25T00:22:16;99413.47;;;9.75;68.23
75604;BME280;64187;51.010;13.792;2023-04-25T00:27:14;99415.91;;;9.76;68.57
75604;BME280;64187;51.010;13.792;2023-04-25T00:32:13;99418.75;;;9.91;67.72
75604;BME280;64187;51.010;13.792;2023-04-25T00:37:12;99427.69;;;9.97;66.44
75604;BME280;64187;51.010;13.792;2023-04-25T00:42:11;99415.56;;;10.05;66.36
75604;BME280;64187;51.010;13.792;2023-04-25T00:47:11;99417.53;;;9.72;67.25
75604;BME280;64187;51.010;13.792;2023-04-25T00:52:10;99411.13;;;9.88;66.30
75604;BME280;64187;51.010;13.792;2023-04-25T00:57:09;99418.13;;;9.79;66.70
75604;BME280;64187;51.010;13.792;2023-04-25T01:02:09;99409.03;;;9.58;67.81
75604;BME280;64187;51.010;13.792;2023-04-25T01:07:09;99411.78;;;9.68;67.57
75604;BME280;64187;51.010;13.792;2023-04-25T01:12:08;99413.22;;;9.44;67.44
75604;BME280;64187;51.010;13.792;2023-04-25T01:17:08;99407.53;;;9.40;67.39
75604;BME280;64187;51.010;13.792;2023-04-25T01:22:07;99411.19;;;9.29;67.70
75604;BME280;64187;51.010;13.792;2023-04-25T01:27:09;99418.53;;;9.06;67.51
75604;BME280;64187;51.010;13.792;2023-04-25T01:32:08;99419.34;;;9.02;67.85
75604;BME280;64187;51.010;13.792;2023-04-25T01:37:08;99419.00;;;8.98;67.55
75604;BME280;64187;51.010;13.792;2023-04-25T01:42:07;99413.03;;;8.96;67.07
75604;BME280;64187;51.010;13.792;2023-04-25T01:47:06;99410.00;;;8.88;67.33
75604;BME280;64187;51.010;13.792;2023-04-25T01:52:05;99410.81;;;8.88;66.99
75604;BME280;64187;51.010;13.792;2023-04-25T01:57:04;99405.50;;;8.71;67.53
75604;BME280;64187;51.010;13.792;2023-04-25T02:02:06;99408.47;;;8.48;67.80
75604;BME280;64187;51.010;13.792;2023-04-25T02:07:06;99408.47;;;8.70;66.78
75604;BME280;64187;51.010;13.792;2023-04-25T02:12:20;99411.28;;;8.58;67.07
75604;BME280;64187;51.010;13.792;2023-04-25T02:17:44;99407.88;;;8.46;67.31
75604;BME280;64187;51.010;13.792;2023-04-25T02:22:43;99413.69;;;8.37;67.46
75604;BME280;64187;51.010;13.792;2023-04-25T02:27:42;99404.22;;;8.35;67.37
75604;BME280;64187;51.010;13.792;2023-04-25T02:32:41;99403.81;;;8.04;68.28
75604;BME280;64187;51.010;13.792;2023-04-25T02:37:42;99404.22;;;8.35;67.72
75604;BME280;64187;51.010;13.792;2023-04-25T02:42:41;99404.13;;;8.08;68.02
75604;BME280;64187;51.010;13.792;2023-04-25T02:47:40;99405.44;;;8.27;67.82
75604;BME280;64187;51.010;13.792;2023-04-25T02:52:41;99403.38;;;8.34;67.88
75604;BME280;64187;51.010;13.792;2023-04-25T02:57:51;99401.88;;;8.22;68.51
75604;BME280;64187;51.010;13.792;2023-04-25T03:03:03;99405.81;;;8.14;68.58
75604;BME280;64187;51.010;13.792;2023-04-25T03:08:02;99401.41;;;7.69;69.44
75604;BME280;64187;51.010;13.792;2023-04-25T03:13:03;99399.78;;;7.68;69.85
75604;BME280;64187;51.010;13.792;2023-04-25T03:18:02;99394.47;;;7.39;70.30
75604;BME280;64187;51.010;13.792;2023-04-25T03:23:01;99402.88;;;7.26;71.22
75604;BME280;64187;51.010;13.792;2023-04-25T03:28:01;99402.88;;;7.26;71.56
75604;BME280;64187;51.010;13.792;2023-04-25T03:33:00;99404.16;;;7.40;70.88
75604;BME280;64187;51.010;13.792;2023-04-25T03:37:59;99402.97;;;7.48;71.10
75604;BME280;64187;51.010;13.792;2023-04-25T03:43:03;99400.56;;;7.18;71.97
75604;BME280;64187;51.010;13.792;2023-04-25T03:48:04;99407.91;;;7.22;71.88
75604;BME280;64187;51.010;13.792;2023-04-25T03:53:04;99408.25;;;7.26;71.61
75604;BME280;64187;51.010;13.792;2023-04-25T03:58:18;99397.81;;;7.46;70.61
75604;BME280;64187;51.010;13.792;2023-04-25T04:03:19;99403.41;;;7.11;72.59
75604;BME280;64187;51.010;13.792;2023-04-25T04:08:19;99411.34;;;6.89;73.93
75604;BME280;64187;51.010;13.792;2023-04-25T04:13:18;99417.06;;;7.21;72.19
75604;BME280;64187;51.010;13.792;2023-04-25T04:18:17;99414.38;;;7.21;71.82
75604;BME280;64187;51.010;13.792;2023-04-25T04:23:16;99410.56;;;7.05;72.88
75604;BME280;64187;51.010;13.792;2023-04-25T04:28:15;99414.69;;;7.25;72.24
75604;BME280;64187;51.010;13.792;2023-04-25T04:33:28;99412.84;;;7.59;70.85
75604;BME280;64187;51.010;13.792;2023-04-25T04:38:31;99407.53;;;8.20;68.33
75604;BME280;64187;51.010;13.792;2023-04-25T04:43:33;99404.78;;;13.12;70.67
75604;BME280;64187;51.010;13.792;2023-04-25T04:49:00;99425.03;;;13.35;59.22
75604;BME280;64187;51.010;13.792;2023-04-25T04:54:28;99410.19;;;13.56;55.63
75604;BME280;64187;51.010;13.792;2023-04-25T04:59:45;99423.97;;;13.26;55.63
75604;BME280;64187;51.010;13.792;2023-04-25T05:05:13;99418.06;;;13.13;56.91
75604;BME280;64187;51.010;13.792;2023-04-25T05:10:21;99425.72;;;13.51;63.88
75604;BME280;64187;51.010;13.792;2023-04-25T05:15:38;99431.78;;;11.41;57.27
75604;BME280;64187;51.010;13.792;2023-04-25T05:21:04;99433.97;;;10.55;59.43
75604;BME280;64187;51.010;13.792;2023-04-25T05:26:26;99433.78;;;10.20;59.95
75604;BME280;64187;51.010;13.792;2023-04-25T05:31:42;99427.16;;;10.00;59.64
75604;BME280;64187;51.010;13.792;2023-04-25T05:36:45;99435.75;;;9.87;60.10
75604;BME280;64187;51.010;13.792;2023-04-25T05:41:47;99435.81;;;9.97;58.27
75604;BME280;64187;51.010;13.792;2023-04-25T05:47:06;99440.38;;;9.59;59.45
75604;BME280;64187;51.010;13.792;2023-04-25T05:52:37;99438.09;;;9.46;58.86
75604;BME280;64187;51.010;13.792;2023-04-25T05:57:55;99443.63;;;9.61;58.40
75604;BME280;64187;51.010;13.792;2023-04-25T06:02:54;99441.84;;;9.72;58.48
75604;BME280;64187;51.010;13.792;2023-04-25T06:07:54;99439.66;;;9.69;58.31
75604;BME280;64187;51.010;13.792;2023-04-25T06:12:53;99441.47;;;9.63;57.86
75604;BME280;64187;51.010;13.792;2023-04-25T06:17:53;99447.84;;;9.79;57.53
75604;BME280;64187;51.010;13.792;2023-04-25T06:22:53;99447.88;;;9.84;57.90
75604;BME280;64187;51.010;13.792;2023-04-25T06:27:59;99431.63;;;9.47;58.43
75604;BME280;64187;51.010;13.792;2023-04-25T06:32:59;99444.81;;;9.76;57.71
75604;BME280;64187;51.010;13.792;2023-04-25T06:38:01;99439.06;;;9.99;56.97
75604;BME280;64187;51.010;13.792;2023-04-25T06:43:02;99449.50;;;9.85;56.14
75604;BME280;64187;51.010;13.792;2023-04-25T06:48:25;99444.50;;;10.04;55.59
75604;BME280;64187;51.010;13.792;2023-04-25T06:53:24;99446.53;;;10.24;55.34
75604;BME280;64187;51.010;13.792;2023-04-25T06:58:29;99446.38;;;10.41;54.67
75604;BME280;64187;51.010;13.792;2023-04-25T07:03:40;99446.06;;;10.38;55.25
75604;BME280;64187;51.010;13.792;2023-04-25T07:08:45;99447.78;;;10.54;54.91
75604;BME280;64187;51.010;13.792;2023-04-25T07:13:44;99447.97;;;10.37;54.94
75604;BME280;64187;51.010;13.792;2023-04-25T07:18:43;99447.94;;;10.32;55.27
75604;BME280;64187;51.010;13.792;2023-04-25T07:23:42;99452.53;;;10.94;53.42
75604;BME280;64187;51.010;13.792;2023-04-25T07:28:46;99462.41;;;11.47;52.25
75604;BME280;64187;51.010;13.792;2023-04-25T07:33:49;99453.09;;;10.91;52.23
75604;BME280;64187;51.010;13.792;2023-04-25T07:38:48;99452.34;;;11.27;50.37
75604;BME280;64187;51.010;13.792;2023-04-25T07:43:48;99447.19;;;11.30;50.33
75604;BME280;64187;51.010;13.792;2023-04-25T07:48:47;99448.53;;;11.12;49.73
75604;BME280;64187;51.010;13.792;2023-04-25T07:53:47;99452.66;;;11.51;49.58
75604;BME280;64187;51.010;13.792;2023-04-25T07:58:48;99453.47;;;11.56;49.26
75604;BME280;64187;51.010;13.792;2023-04-25T08:03:50;99460.00;;;11.66;47.87
75604;BME280;64187;51.010;13.792;2023-04-25T08:08:54;99459.72;;;11.67;47.66
75604;BME280;64187;51.010;13.792;2023-04-25T08:13:59;99459.69;;;11.31;50.03
75604;BME280;64187;51.010;13.792;2023-04-25T08:18:59;99464.59;;;11.85;49.00
75604;BME280;64187;51.010;13.792;2023-04-25T08:23:58;99467.50;;;11.17;49.68
75604;BME280;64187;51.010;13.792;2023-04-25T08:29:01;99458.78;;;11.05;50.17
75604;BME280;64187;51.010;13.792;2023-04-25T08:34:00;99472.34;;;11.05;50.34
75604;BME280;64187;51.010;13.792;2023-04-25T08:39:06;99485.44;;;11.34;50.01
75604;BME280;64187;51.010;13.792;2023-04-25T08:44:15;99483.53;;;11.39;50.06
75604;BME280;64187;51.010;13.792;2023-04-25T08:49:16;99491.16;;;11.53;50.46
75604;BME280;64187;51.010;13.792;2023-04-25T08:54:16;99490.28;;;11.27;51.39
75604;BME280;64187;51.010;13.792;2023-04-25T08:59:18;99498.31;;;10.91;52.36
75604;BME280;64187;51.010;13.792;2023-04-25T09:04:18;99501.88;;;11.12;53.04
75604;BME280;64187;51.010;13.792;2023-04-25T09:09:19;99505.69;;;11.06;52.50
75604;BME280;64187;51.010;13.792;2023-04-25T09:14:19;99509.03;;;10.70;53.91
75604;BME280;64187;51.010;13.792;2023-04-25T09:19:53;99516.66;;;10.78;54.20
75604;BME280;64187;51.010;13.792;2023-04-25T09:25:03;99519.94;;;10.86;53.53
75604;BME280;64187;51.010;13.792;2023-04-25T09:30:03;99526.31;;;10.64;54.65
75604;BME280;64187;51.010;13.792;2023-04-25T09:35:25;99539.03;;;10.59;54.69
75604;BME280;64187;51.010;13.792;2023-04-25T09:40:31;99536.13;;;10.33;55.64
75604;BME280;64187;51.010;13.792;2023-04-25T09:45:42;99548.69;;;10.49;54.86
75604;BME280;64187;51.010;13.792;2023-04-25T09:51:07;99555.91;;;10.33;55.54
75604;BME280;64187;51.010;13.792;2023-04-25T09:56:08;99562.19;;;10.12;55.48
75604;BME280;64187;51.010;13.792;2023-04-25T10:01:09;99569.34;;;9.96;55.96
75604;BME280;64187;51.010;13.792;2023-04-25T10:06:22;99557.41;;;9.92;57.20
75604;BME280;64187;51.010;13.792;2023-04-25T10:11:22;99565.91;;;10.38;56.48
75604;BME280;64187;51.010;13.792;2023-04-25T10:16:24;99575.63;;;10.71;55.69
75604;BME280;64187;51.010;13.792;2023-04-25T10:21:24;99574.97;;;10.96;54.89
75604;BME280;64187;51.010;13.792;2023-04-25T10:26:25;99573.84;;;10.92;55.68
75604;BME280;64187;51.010;13.792;2023-04-25T10:31:27;99570.28;;;10.82;54.07
75604;BME280;64187;51.010;13.792;2023-04-25T10:36:31;99572.13;;;10.71;54.32
75604;BME280;64187;51.010;13.792;2023-04-25T10:41:30;99573.84;;;10.92;52.88
75604;BME280;64187;51.010;13.792;2023-04-25T10:46:29;99577.81;;;11.37;53.17
75604;BME280;64187;51.010;13.792;2023-04-25T10:51:32;99574.84;;;11.39;52.97
75604;BME280;64187;51.010;13.792;2023-04-25T10:56:51;99584.69;;;11.55;52.97
75604;BME280;64187;51.010;13.792;2023-04-25T11:01:52;99589.38;;;11.12;54.34
75604;BME280;64187;51.010;13.792;2023-04-25T11:07:11;99587.22;;;10.62;56.44
75604;BME280;64187;51.010;13.792;2023-04-25T11:12:12;99599.69;;;10.03;58.43
75604;BME280;64187;51.010;13.792;2023-04-25T11:17:11;99599.69;;;9.76;59.99
75604;BME280;64187;51.010;13.792;2023-04-25T11:22:11;99606.38;;;9.96;60.09
75604;BME280;64187;51.010;13.792;2023-04-25T11:27:10;99611.69;;;9.85;60.13
75604;BME280;64187;51.010;13.792;2023-04-25T11:32:10;99626.00;;;9.86;60.19
75604;BME280;64187;51.010;13.792;2023-04-25T11:37:09;99631.41;;;9.86;61.82
75604;BME280;64187;51.010;13.792;2023-04-25T11:42:10;99645.63;;;10.57;60.13
75604;BME280;64187;51.010;13.792;2023-04-25T11:47:11;99645.50;;;10.15;57.73
75604;BME280;64187;51.010;13.792;2023-04-25T11:52:10;99653.06;;;10.77;56.59
75604;BME280;64187;51.010;13.792;2023-04-25T11:57:09;99645.25;;;10.44;56.09
75604;BME280;64187;51.010;13.792;2023-04-25T12:02:08;99650.16;;;10.47;56.46
75604;BME280;64187;51.010;13.792;2023-04-25T12:07:09;99648.22;;;10.80;55.29
75604;BME280;64187;51.010;13.792;2023-04-25T12:12:09;99654.72;;;10.78;55.60
75604;BME280;64187;51.010;13.792;2023-04-25T12:17:08;99656.16;;;10.54;55.22
75604;BME280;64187;51.010;13.792;2023-04-25T12:22:22;99654.66;;;10.68;54.96
75604;BME280;64187;51.010;13.792;2023-04-25T12:27:21;99662.91;;;10.24;55.75
75604;BME280;64187;51.010;13.792;2023-04-25T12:32:21;99660.78;;;10.26;55.74
75604;BME280;64187;51.010;13.792;2023-04-25T12:37:20;99654.78;;;9.97;55.96
75604;BME280;64187;51.010;13.792;2023-04-25T12:42:19;99662.88;;;10.46;53.74
75604;BME280;64187;51.010;13.792;2023-04-25T12:47:18;99657.44;;;10.78;52.68
75604;BME280;64187;51.010;13.792;2023-04-25T12:52:17;99644.91;;;11.68;50.60
75604;BME280;64187;51.010;13.792;2023-04-25T12:57:16;99654.88;;;11.62;49.93
75604;BME280;64187;51.010;13.792;2023-04-25T13:02:15;99666.88;;;10.76;51.58
75604;BME280;64187;51.010;13.792;2023-04-25T13:07:14;99657.25;;;10.95;51.11
75604;BME280;64187;51.010;13.792;2023-04-25T13:12:13;99667.16;;;11.22;51.24
75604;BME280;64187;51.010;13.792;2023-04-25T13:17:12;99668.41;;;10.99;50.99
75604;BME280;64187;51.010;13.792;2023-04-25T13:22:11;99678.75;;;11.12;51.47
75604;BME280;64187;51.010;13.792;2023-04-25T13:27:09;99684.56;;;10.51;53.14
75604;BME280;64187;51.010;13.792;2023-04-25T13:32:08;99697.91;;;10.63;52.90
75604;BME280;64187;51.010;13.792;2023-04-25T13:37:07;99693.41;;;10.42;54.53
75604;BME280;64187;51.010;13.792;2023-04-25T13:42:06;99701.84;;;10.50;54.49
75604;BME280;64187;51.010;13.792;2023-04-25T13:47:05;99712.56;;;9.91;53.99
75604;BME280;64187;51.010;13.792;2023-04-25T13:52:05;99718.13;;;9.57;51.65
75604;BME280;64187;51.010;13.792;2023-04-25T13:57:04;99718.34;;;9.56;52.37
75604;BME280;64187;51.010;13.792;2023-04-25T14:02:04;99732.97;;;9.38;52.76
75604;BME280;64187;51.010;13.792;2023-04-25T14:07:03;99739.25;;;9.43;52.64
75604;BME280;64187;51.010;13.792;2023-04-25T14:12:04;99735.06;;;9.53;52.76
75604;BME280;64187;51.010;13.792;2023-04-25T14:17:04;99741.28;;;9.53;53.22
75604;BME280;64187;51.010;13.792;2023-04-25T14:22:03;99744.69;;;9.26;53.51
75604;BME280;64187;51.010;13.792;2023-04-25T14:27:03;99734.28;;;9.74;52.19
75604;BME280;64187;51.010;13.792;2023-04-25T14:32:02;99729.88;;;9.68;52.50
75604;BME280;64187;51.010;13.792;2023-04-25T14:37:02;99736.91;;;9.91;51.35
75604;BME280;64187;51.010;13.792;2023-04-25T14:42:01;99738.97;;;10.55;50.75
75604;BME280;64187;51.010;13.792;2023-04-25T14:47:00;99737.69;;;10.63;50.91
75604;BME280;64187;51.010;13.792;2023-04-25T14:51:59;99743.84;;;10.85;49.92
75604;BME280;64187;51.010;13.792;2023-04-25T14:56:58;99738.81;;;10.40;50.61
75604;BME280;64187;51.010;13.792;2023-04-25T15:01:57;99731.88;;;10.49;51.03
75604;BME280;64187;51.010;13.792;2023-04-25T15:06:57;99735.41;;;10.49;50.50
75604;BME280;64187;51.010;13.792;2023-04-25T15:11:57;99746.63;;;10.63;50.75
75604;BME280;64187;51.010;13.792;2023-04-25T15:16:56;99752.13;;;11.06;47.98
75604;BME280;64187;51.010;13.792;2023-04-25T15:21:55;99759.69;;;10.71;46.89
75604;BME280;64187;51.010;13.792;2023-04-25T15:26:54;99762.31;;;10.61;47.24
75604;BME280;64187;51.010;13.792;2023-04-25T15:31:52;99764.19;;;10.61;46.61
75604;BME280;64187;51.010;13.792;2023-04-25T15:36:51;99779.34;;;10.12;46.88
75604;BME280;64187;51.010;13.792;2023-04-25T15:41:50;99772.44;;;10.00;47.46
75604;BME280;64187;51.010;13.792;2023-04-25T15:46:49;99780.78;;;9.54;47.82
75604;BME280;64187;51.010;13.792;2023-04-25T15:51:50;99775.44;;;9.59;48.01
75604;BME280;64187;51.010;13.792;2023-04-25T15:56:49;99786.56;;;9.63;47.52
75604;BME280;64187;51.010;13.792;2023-04-25T16:01:48;99792.97;;;9.57;47.56
75604;BME280;64187;51.010;13.792;2023-04-25T16:06:47;99787.22;;;9.53;47.83
75604;BME280;64187;51.010;13.792;2023-04-25T16:11:46;99786.38;;;9.69;47.63
75604;BME280;64187;51.010;13.792;2023-04-25T16:16:45;99787.25;;;9.75;47.51
75604;BME280;64187;51.010;13.792;2023-04-25T16:21:44;99784.31;;;9.77;47.20
75604;BME280;64187;51.010;13.792;2023-04-25T16:26:43;99787.03;;;9.77;47.27
75604;BME280;64187;51.010;13.792;2023-04-25T16:31:43;99793.41;;;9.70;46.47
75604;BME280;64187;51.010;13.792;2023-04-25T16:36:42;99791.41;;;9.83;46.49
75604;BME280;64187;51.010;13.792;2023-04-25T16:41:41;99789.91;;;9.92;46.46
75604;BME280;64187;51.010;13.792;2023-04-25T16:46:40;99795.53;;;9.68;46.80
75604;BME280;64187;51.010;13.792;2023-04-25T16:51:38;99817.56;;;9.77;46.97
75604;BME280;64187;51.010;13.792;2023-04-25T16:56:37;99804.81;;;9.95;41.77
75604;BME280;64187;51.010;13.792;2023-04-25T17:01:37;99820.84;;;9.79;39.97
75604;BME280;64187;51.010;13.792;2023-04-25T17:06:36;99826.50;;;10.00;40.81
75604;BME280;64187;51.010;13.792;2023-04-25T17:11:36;99829.56;;;9.64;41.11
75604;BME280;64187;51.010;13.792;2023-04-25T17:16:38;99829.69;;;9.75;41.22
75604;BME280;64187;51.010;13.792;2023-04-25T17:21:37;99842.16;;;9.59;42.54
75604;BME280;64187;51.010;13.792;2023-04-25T17:26:37;99832.84;;;9.66;43.23
75604;BME280;64187;51.010;13.792;2023-04-25T17:31:36;99843.31;;;9.63;43.61
75604;BME280;64187;51.010;13.792;2023-04-25T17:36:35;99851.91;;;9.60;43.73
75604;BME280;64187;51.010;13.792;2023-04-25T17:41:34;99860.09;;;9.48;44.20
75604;BME280;64187;51.010;13.792;2023-04-25T17:46:33;99861.75;;;9.32;45.05
75604;BME280;64187;51.010;13.792;2023-04-25T17:51:32;99875.00;;;9.34;45.43
75604;BME280;64187;51.010;13.792;2023-04-25T17:56:34;99875.16;;;9.27;46.07
75604;BME280;64187;51.010;13.792;2023-04-25T18:01:34;99886.03;;;9.15;46.50
75604;BME280;64187;51.010;13.792;2023-04-25T18:06:33;99888.56;;;9.05;48.21
75604;BME280;64187;51.010;13.792;2023-04-25T18:11:33;99891.53;;;9.20;47.51
75604;BME280;64187;51.010;13.792;2023-04-25T18:16:31;99890.38;;;9.16;48.85
75604;BME280;64187;51.010;13.792;2023-04-25T18:21:31;99889.47;;;9.11;47.61
75604;BME280;64187;51.010;13.792;2023-04-25T18:26:29;99894.25;;;8.92;48.29
75604;BME280;64187;51.010;13.792;2023-04-25T18:31:29;99902.25;;;8.87;49.62
75604;BME280;64187;51.010;13.792;2023-04-25T18:36:29;99908.94;;;8.84;48.58
75604;BME280;64187;51.010;13.792;2023-04-25T18:41:28;99916.63;;;8.75;48.11
75604;BME280;64187;51.010;13.792;2023-04-25T18:46:47;99928.31;;;8.81;47.88
75604;BME280;64187;51.010;13.792;2023-04-25T18:51:47;99925.88;;;8.79;48.49
75604;BME280;64187;51.010;13.792;2023-04-25T18:56:46;99940.41;;;8.50;48.75
75604;BME280;64187;51.010;13.792;2023-04-25T19:01:45;99944.44;;;8.64;47.63
75604;BME280;64187;51.010;13.792;2023-04-25T19:06:44;99956.81;;;8.48;48.25
75604;BME280;64187;51.010;13.792;2023-04-25T19:11:49;99953.66;;;8.28;49.05
75604;BME280;64187;51.010;13.792;2023-04-25T19:16:47;99953.97;;;8.31;49.02
75604;BME280;64187;51.010;13.792;2023-04-25T19:21:47;99957.16;;;8.28;49.54
75604;BME280;64187;51.010;13.792;2023-04-25T19:26:47;99956.44;;;8.21;49.81
75604;BME280;64187;51.010;13.792;2023-04-25T19:31:46;99963.94;;;8.19;50.70
75604;BME280;64187;51.010;13.792;2023-04-25T19:36:45;99961.13;;;8.02;51.39
75604;BME280;64187;51.010;13.792;2023-04-25T19:41:44;99978.38;;;7.89;51.43
75604;BME280;64187;51.010;13.792;2023-04-25T19:46:43;99972.25;;;7.82;53.13
75604;BME280;64187;51.010;13.792;2023-04-25T19:51:44;99969.19;;;7.67;53.84
75604;BME280;64187;51.010;13.792;2023-04-25T19:56:43;99973.22;;;7.34;54.44
75604;BME280;64187;51.010;13.792;2023-04-25T20:01:43;99980.56;;;6.97;55.98
75604;BME280;64187;51.010;13.792;2023-04-25T20:06:42;99980.84;;;7.37;55.86
75604;BME280;64187;51.010;13.792;2023-04-25T20:11:41;99980.38;;;7.10;55.12
75604;BME280;64187;51.010;13.792;2023-04-25T20:16:40;99980.56;;;7.27;55.59
75604;BME280;64187;51.010;13.792;2023-04-25T20:21:39;99988.81;;;7.44;55.28
75604;BME280;64187;51.010;13.792;2023-04-25T20:26:38;99999.69;;;9.42;77.05
75604;BME280;64187;51.010;13.792;2023-04-25T20:31:37;99988.13;;;11.96;54.88
75604;BME280;64187;51.010;13.792;2023-04-25T20:36:36;100002.09;;;8.98;51.54
75604;BME280;64187;51.010;13.792;2023-04-25T20:41:35;100005.47;;;8.41;51.97
75604;BME280;64187;51.010;13.792;2023-04-25T20:46:35;100005.56;;;7.88;53.03
75604;BME280;64187;51.010;13.792;2023-04-25T20:51:34;100003.06;;;7.63;53.78
75604;BME280;64187;51.010;13.792;2023-04-25T20:56:34;100014.59;;;7.51;55.04
75604;BME280;64187;51.010;13.792;2023-04-25T21:01:34;100009.44;;;7.50;55.12
75604;BME280;64187;51.010;13.792;2023-04-25T21:06:33;100011.44;;;7.54;54.13
75604;BME280;64187;51.010;13.792;2023-04-25T21:11:32;100020.94;;;7.57;54.29
75604;BME280;64187;51.010;13.792;2023-04-25T21:16:31;100021.06;;;7.50;54.28
75604;BME280;64187;51.010;13.792;2023-04-25T21:21:32;100032.94;;;7.43;54.20
75604;BME280;64187;51.010;13.792;2023-04-25T21:26:31;100029.91;;;7.39;53.64
75604;BME280;64187;51.010;13.792;2023-04-25T21:31:30;100029.44;;;7.42;53.08
75604;BME280;64187;51.010;13.792;2023-04-25T21:36:29;100026.41;;;7.20;53.72
75604;BME280;64187;51.010;13.792;2023-04-25T21:41:28;100023.44;;;7.28;55.02
75604;BME280;64187;51.010;13.792;2023-04-25T21:46:28;100026.47;;;7.32;54.98
75604;BME280;64187;51.010;13.792;2023-04-25T21:51:27;100031.84;;;7.32;55.97
75604;BME280;64187;51.010;13.792;2023-04-25T21:56:26;100033.13;;;7.60;54.19
75604;BME280;64187;51.010;13.792;2023-04-25T22:01:25;100033.25;;;7.53;54.38
75604;BME280;64187;51.010;13.792;2023-04-25T22:06:25;100039.19;;;7.43;54.40
75604;BME280;64187;51.010;13.792;2023-04-25T22:11:24;100039.19;;;7.43;54.99
75604;BME280;64187;51.010;13.792;2023-04-25T22:16:23;100050.16;;;7.42;54.94
75604;BME280;64187;51.010;13.792;2023-04-25T22:21:22;100053.31;;;7.39;55.64
75604;BME280;64187;51.010;13.792;2023-04-25T22:26:22;100058.16;;;7.48;55.04
75604;BME280;64187;51.010;13.792;2023-04-25T22:31:22;100069.41;;;7.45;55.29
75604;BME280;64187;51.010;13.792;2023-04-25T22:36:21;100078.84;;;7.18;57.01
75604;BME280;64187;51.010;13.792;2023-04-25T22:41:21;100082.66;;;7.10;57.77
75604;BME280;64187;51.010;13.792;2023-04-25T22:46:21;100079.81;;;7.05;59.02
75604;BME280;64187;51.010;13.792;2023-04-25T22:51:20;100083.19;;;7.00;60.53
75604;BME280;64187;51.010;13.792;2023-04-25T22:56:19;100079.00;;;7.04;62.57
75604;BME280;64187;51.010;13.792;2023-04-25T23:01:18;100091.22;;;7.37;60.44
75604;BME280;64187;51.010;13.792;2023-04-25T23:06:17;100082.28;;;7.25;60.37
75604;BME280;64187;51.010;13.792;2023-04-25T23:11:16;100082.22;;;7.13;60.38
75604;BME280;64187;51.010;13.792;2023-04-25T23:16:15;100089.84;;;6.98;61.09
75604;BME280;64187;51.010;13.792;2023-04-25T23:21:13;100089.94;;;6.91;60.92
75604;BME280;64187;51.010;13.792;2023-04-25T23:26:13;100101.56;;;6.85;61.44
75604;BME280;64187;51.010;13.792;2023-04-25T23:31:12;100104.19;;;6.92;61.31
75604;BME280;64187;51.010;13.792;2023-04-25T23:36:18;100114.91;;;6.98;61.46
75604;BME280;64187;51.010;13.792;2023-04-25T23:41:20;100107.63;;;6.80;61.40
75604;BME280;64187;51.010;13.792;2023-04-25T23:46:20;100114.84;;;6.61;62.16
75604;BME280;64187;51.010;13.792;2023-04-25T23:51:19;100118.31;;;6.68;62.22
75604;BME280;64187;51.010;13.792;2023-04-25T23:56:18;100120.84;;;6.82;62.02
